RYR19AA EGSS-LROP
Flight info
| Callsign | RYR19AA |
|---|---|
| Flight time | N/A |
| Altitude | 35000 |
| Route | CLN P44 RATLO M197 REDFA L620 TACHA DCT RKN DCT KUMER DCT OMELO DCT EVIKU DCT ROMIS DCT KREMI DCT DEMOP DCT NARKA DCT DENAK |
| Aircraft | B738/M-SDE2E3FGHIRWXY/LB1 |
Departure
| Time | 2026-05-05 05:08 |
|---|---|
| Airport | London Stansted Airport (EGSS) |
Arrival
| Time | N/A |
|---|---|
| Airport | Bucharest Henri Coandă International Airport (LROP) |
| Time | Latitude | Longitude | Altitude | Speed | Heading |
|---|---|---|---|---|---|
| 2026-05-05 04:27 | 51.89182 | 0.25438 | 350 ft | 0 kts | 57° |
| 2026-05-05 04:58 | 51.89179 | 0.25432 | 348 ft | 2 kts | 58° |
| 2026-05-05 04:58 | 51.89171 | 0.25409 | 375 ft | 2 kts | 58° |
| 2026-05-05 04:59 | 51.89159 | 0.25390 | 339 ft | 2 kts | 351° |
| 2026-05-05 04:59 | 51.89144 | 0.25399 | 352 ft | 2 kts | 331° |
| 2026-05-05 04:59 | 51.89130 | 0.25413 | 358 ft | 2 kts | 322° |
| 2026-05-05 04:59 | 51.89123 | 0.25422 | 355 ft | 0 kts | 317° |
| 2026-05-05 05:03 | 51.89123 | 0.25421 | 348 ft | 1 kts | 317° |
| 2026-05-05 05:03 | 51.89135 | 0.25400 | 354 ft | 5 kts | 311° |
| 2026-05-05 05:03 | 51.89173 | 0.25323 | 350 ft | 12 kts | 302° |
| 2026-05-05 05:04 | 51.89230 | 0.25188 | 349 ft | 17 kts | 304° |
| 2026-05-05 05:04 | 51.89199 | 0.25015 | 353 ft | 17 kts | 228° |
| 2026-05-05 05:04 | 51.89112 | 0.24883 | 351 ft | 17 kts | 223° |
| 2026-05-05 05:04 | 51.89022 | 0.24748 | 348 ft | 18 kts | 223° |
| 2026-05-05 05:05 | 51.88936 | 0.24620 | 348 ft | 15 kts | 223° |
| 2026-05-05 05:05 | 51.88848 | 0.24617 | 349 ft | 15 kts | 137° |
| 2026-05-05 05:05 | 51.88832 | 0.24756 | 355 ft | 14 kts | 48° |
| 2026-05-05 05:05 | 51.88904 | 0.24869 | 351 ft | 15 kts | 43° |
| 2026-05-05 05:06 | 51.88981 | 0.24985 | 348 ft | 15 kts | 42° |
| 2026-05-05 05:06 | 51.89057 | 0.25098 | 352 ft | 15 kts | 42° |
| 2026-05-05 05:06 | 51.89135 | 0.25214 | 350 ft | 16 kts | 43° |
| 2026-05-05 05:06 | 51.89220 | 0.25344 | 352 ft | 18 kts | 43° |
| 2026-05-05 05:07 | 51.89314 | 0.25486 | 351 ft | 17 kts | 43° |
| 2026-05-05 05:07 | 51.89413 | 0.25479 | 350 ft | 18 kts | 295° |
| 2026-05-05 05:07 | 51.89448 | 0.25291 | 352 ft | 17 kts | 310° |
| 2026-05-05 05:07 | 51.89494 | 0.25128 | 346 ft | 19 kts | 273° |
| 2026-05-05 05:08 | 51.89447 | 0.24903 | 337 ft | 28 kts | 223° |
| 2026-05-05 05:08 | 51.89112 | 0.24399 | 338 ft | 106 kts | 223° |
| 2026-05-05 05:08 | 51.88398 | 0.23332 | 387 ft | 169 kts | 222° |
| 2026-05-05 05:08 | 51.87506 | 0.21966 | 1199 ft | 179 kts | 225° |
| 2026-05-05 05:09 | 51.86597 | 0.20516 | 2117 ft | 190 kts | 224° |
| 2026-05-05 05:09 | 51.85494 | 0.19307 | 2997 ft | 201 kts | 200° |
| 2026-05-05 05:09 | 51.84089 | 0.19104 | 3742 ft | 210 kts | 170° |
| 2026-05-05 05:09 | 51.82756 | 0.20166 | 4360 ft | 223 kts | 140° |
| 2026-05-05 05:10 | 51.81736 | 0.22172 | 4857 ft | 241 kts | 117° |
| 2026-05-05 05:10 | 51.81248 | 0.24834 | 5332 ft | 255 kts | 96° |
| 2026-05-05 05:10 | 51.81329 | 0.27747 | 5802 ft | 264 kts | 82° |
| 2026-05-05 05:10 | 51.81535 | 0.30739 | 6471 ft | 270 kts | 85° |
| 2026-05-05 05:11 | 51.81690 | 0.33760 | 7331 ft | 270 kts | 86° |
| 2026-05-05 05:11 | 51.81827 | 0.36811 | 8102 ft | 274 kts | 86° |
| 2026-05-05 05:11 | 51.81959 | 0.39902 | 8887 ft | 278 kts | 87° |
| 2026-05-05 05:11 | 51.82090 | 0.43031 | 9675 ft | 281 kts | 87° |
| 2026-05-05 05:12 | 51.82221 | 0.46206 | 10397 ft | 286 kts | 87° |
| 2026-05-05 05:12 | 51.82357 | 0.49522 | 10677 ft | 308 kts | 87° |
| 2026-05-05 05:12 | 51.82502 | 0.53100 | 10865 ft | 331 kts | 87° |
| 2026-05-05 05:12 | 51.82657 | 0.56947 | 11089 ft | 352 kts | 87° |
| 2026-05-05 05:13 | 51.82819 | 0.60959 | 11611 ft | 362 kts | 87° |
| 2026-05-05 05:13 | 51.82983 | 0.65036 | 12321 ft | 366 kts | 87° |
| 2026-05-05 05:13 | 51.83146 | 0.69168 | 13039 ft | 369 kts | 88° |
| 2026-05-05 05:13 | 51.83309 | 0.73335 | 13758 ft | 374 kts | 88° |
| 2026-05-05 05:14 | 51.83471 | 0.77533 | 14390 ft | 377 kts | 88° |
| 2026-05-05 05:14 | 51.83634 | 0.81802 | 15024 ft | 381 kts | 88° |
| 2026-05-05 05:14 | 51.83791 | 0.86092 | 15662 ft | 384 kts | 88° |
| 2026-05-05 05:14 | 51.83947 | 0.90433 | 16285 ft | 388 kts | 88° |
| 2026-05-05 05:15 | 51.84103 | 0.94813 | 16902 ft | 392 kts | 88° |
| 2026-05-05 05:15 | 51.84260 | 0.99239 | 17515 ft | 396 kts | 88° |
| 2026-05-05 05:15 | 51.84417 | 1.03703 | 18119 ft | 400 kts | 88° |
| 2026-05-05 05:15 | 51.84575 | 1.08219 | 18659 ft | 404 kts | 88° |
| 2026-05-05 05:16 | 51.84733 | 1.12701 | 19181 ft | 407 kts | 87° |
| 2026-05-05 05:16 | 51.85312 | 1.17194 | 19660 ft | 413 kts | 69° |
| 2026-05-05 05:16 | 51.86471 | 1.21453 | 20231 ft | 415 kts | 66° |
| 2026-05-05 05:16 | 51.87674 | 1.25728 | 20715 ft | 419 kts | 66° |
| 2026-05-05 05:17 | 51.88880 | 1.30049 | 21198 ft | 423 kts | 66° |
| 2026-05-05 05:17 | 51.90078 | 1.34411 | 21680 ft | 427 kts | 67° |
| 2026-05-05 05:17 | 51.91277 | 1.38831 | 22154 ft | 430 kts | 67° |
| 2026-05-05 05:17 | 51.92475 | 1.43293 | 22628 ft | 434 kts | 68° |
| 2026-05-05 05:18 | 51.93679 | 1.47797 | 23088 ft | 437 kts | 68° |
| 2026-05-05 05:18 | 51.94887 | 1.52333 | 23531 ft | 441 kts | 68° |
| 2026-05-05 05:18 | 51.96106 | 1.56914 | 23901 ft | 444 kts | 68° |
| 2026-05-05 05:18 | 51.97335 | 1.61536 | 24239 ft | 448 kts | 68° |
| 2026-05-05 05:19 | 51.98572 | 1.66202 | 24565 ft | 452 kts | 68° |
| 2026-05-05 05:19 | 51.99660 | 1.71005 | 24898 ft | 455 kts | 76° |
| 2026-05-05 05:19 | 52.00475 | 1.75979 | 25227 ft | 458 kts | 78° |
| 2026-05-05 05:19 | 52.01228 | 1.81011 | 25544 ft | 461 kts | 79° |
| 2026-05-05 05:20 | 52.01973 | 1.86100 | 25868 ft | 464 kts | 79° |
| 2026-05-05 05:20 | 52.02730 | 1.91216 | 26184 ft | 468 kts | 79° |
| 2026-05-05 05:20 | 52.03506 | 1.96365 | 26482 ft | 472 kts | 79° |
| 2026-05-05 05:20 | 52.04299 | 2.01556 | 26793 ft | 475 kts | 78° |
| 2026-05-05 05:21 | 52.05104 | 2.06780 | 27085 ft | 478 kts | 79° |
| 2026-05-05 05:21 | 52.05914 | 2.12037 | 27373 ft | 482 kts | 79° |
| 2026-05-05 05:21 | 52.06729 | 2.17340 | 27654 ft | 485 kts | 79° |
| 2026-05-05 05:21 | 52.07547 | 2.22680 | 27923 ft | 489 kts | 79° |
| 2026-05-05 05:22 | 52.08365 | 2.28051 | 28210 ft | 491 kts | 79° |
| 2026-05-05 05:22 | 52.09187 | 2.33462 | 28484 ft | 494 kts | 79° |
| 2026-05-05 05:22 | 52.10011 | 2.38905 | 28732 ft | 498 kts | 79° |
| 2026-05-05 05:22 | 52.10839 | 2.44399 | 28984 ft | 501 kts | 79° |
| 2026-05-05 05:23 | 52.11682 | 2.49903 | 29255 ft | 504 kts | 78° |
| 2026-05-05 05:23 | 52.12646 | 2.55409 | 29510 ft | 507 kts | 76° |
| 2026-05-05 05:23 | 52.13696 | 2.60907 | 29741 ft | 511 kts | 75° |
| 2026-05-05 05:23 | 52.14779 | 2.66421 | 29977 ft | 513 kts | 75° |
| 2026-05-05 05:24 | 52.15867 | 2.71976 | 30199 ft | 515 kts | 75° |
| 2026-05-05 05:24 | 52.16944 | 2.77550 | 30454 ft | 516 kts | 75° |
| 2026-05-05 05:24 | 52.18006 | 2.83136 | 30749 ft | 515 kts | 75° |
| 2026-05-05 05:24 | 52.19052 | 2.88707 | 31027 ft | 515 kts | 75° |
| 2026-05-05 05:25 | 52.20093 | 2.94292 | 31264 ft | 515 kts | 75° |
| 2026-05-05 05:25 | 52.21129 | 2.99874 | 31446 ft | 516 kts | 75° |
| 2026-05-05 05:25 | 52.22168 | 3.05487 | 31594 ft | 517 kts | 75° |
| 2026-05-05 05:25 | 52.23207 | 3.11100 | 31740 ft | 517 kts | 75° |
| 2026-05-05 05:26 | 52.24245 | 3.16721 | 31882 ft | 518 kts | 75° |
| 2026-05-05 05:26 | 52.25506 | 3.26216 | 32103 ft | 514 kts | 87° |
| 2026-05-05 05:26 | 52.25600 | 3.32013 | 32248 ft | 510 kts | 95° |
| 2026-05-05 05:27 | 52.25460 | 3.37776 | 32435 ft | 508 kts | 96° |
| 2026-05-05 05:27 | 52.25290 | 3.43534 | 32598 ft | 507 kts | 96° |
| 2026-05-05 05:27 | 52.24956 | 3.55013 | 32919 ft | 506 kts | 95° |
| 2026-05-05 05:28 | 52.24805 | 3.60754 | 33089 ft | 505 kts | 95° |
| 2026-05-05 05:28 | 52.24664 | 3.66473 | 33251 ft | 505 kts | 95° |
| 2026-05-05 05:28 | 52.24526 | 3.72196 | 33406 ft | 504 kts | 95° |
| 2026-05-05 05:28 | 52.24389 | 3.77904 | 33539 ft | 504 kts | 95° |
| 2026-05-05 05:29 | 52.24250 | 3.83626 | 33707 ft | 503 kts | 95° |
| 2026-05-05 05:29 | 52.24109 | 3.89322 | 33858 ft | 503 kts | 95° |
| 2026-05-05 05:29 | 52.23964 | 3.95017 | 34003 ft | 502 kts | 95° |
| 2026-05-05 05:29 | 52.23816 | 4.00703 | 34124 ft | 502 kts | 95° |
| 2026-05-05 05:30 | 52.23664 | 4.06389 | 34229 ft | 501 kts | 95° |
| 2026-05-05 05:30 | 52.23510 | 4.12064 | 34341 ft | 501 kts | 95° |
| 2026-05-05 05:30 | 52.23193 | 4.23422 | 34537 ft | 501 kts | 95° |
| 2026-05-05 05:31 | 52.22940 | 4.32220 | 34702 ft | 501 kts | 95° |
| 2026-05-05 05:31 | 52.22774 | 4.37891 | 34809 ft | 501 kts | 95° |
| 2026-05-05 05:31 | 52.22606 | 4.43541 | 34899 ft | 492 kts | 95° |
| 2026-05-05 05:32 | 52.22442 | 4.49028 | 34911 ft | 479 kts | 95° |
| 2026-05-05 05:32 | 52.22279 | 4.54405 | 34946 ft | 472 kts | 95° |
| 2026-05-05 05:32 | 52.21943 | 4.65048 | 34964 ft | 470 kts | 96° |
| 2026-05-05 05:33 | 52.21599 | 4.75609 | 34975 ft | 469 kts | 96° |
| 2026-05-05 05:33 | 52.21244 | 4.86231 | 34969 ft | 469 kts | 96° |
| 2026-05-05 05:34 | 52.20881 | 4.96860 | 34996 ft | 469 kts | 95° |
| 2026-05-05 05:34 | 52.20510 | 5.07460 | 34967 ft | 467 kts | 95° |
| 2026-05-05 05:35 | 52.20132 | 5.18002 | 34946 ft | 465 kts | 95° |
| 2026-05-05 05:35 | 52.19746 | 5.28486 | 34950 ft | 462 kts | 96° |
| 2026-05-05 05:36 | 52.19353 | 5.38913 | 34950 ft | 460 kts | 96° |
| 2026-05-05 05:36 | 52.18951 | 5.49299 | 34953 ft | 458 kts | 96° |
| 2026-05-05 05:37 | 52.18542 | 5.59650 | 34946 ft | 458 kts | 96° |
| 2026-05-05 05:37 | 52.18124 | 5.70000 | 34944 ft | 458 kts | 96° |
| 2026-05-05 05:38 | 52.17695 | 5.80390 | 34942 ft | 460 kts | 96° |
| 2026-05-05 05:38 | 52.17256 | 5.90809 | 34942 ft | 462 kts | 96° |
| 2026-05-05 05:39 | 52.16805 | 6.01275 | 34944 ft | 464 kts | 96° |
| 2026-05-05 05:39 | 52.16344 | 6.11786 | 34943 ft | 466 kts | 97° |
| 2026-05-05 05:40 | 52.15871 | 6.22332 | 34941 ft | 468 kts | 97° |
| 2026-05-05 05:40 | 52.15387 | 6.32909 | 34943 ft | 469 kts | 97° |
| 2026-05-05 05:41 | 52.14893 | 6.43514 | 34945 ft | 469 kts | 97° |
| 2026-05-05 05:41 | 52.14390 | 6.54098 | 34936 ft | 469 kts | 97° |
| 2026-05-05 05:42 | 52.13878 | 6.64698 | 34938 ft | 469 kts | 97° |
| 2026-05-05 05:42 | 52.13353 | 6.75277 | 34936 ft | 468 kts | 98° |
| 2026-05-05 05:43 | 52.12217 | 6.85569 | 34935 ft | 465 kts | 106° |
| 2026-05-05 05:43 | 52.10744 | 6.95768 | 34940 ft | 464 kts | 107° |
| 2026-05-05 05:44 | 52.09255 | 7.06071 | 34942 ft | 464 kts | 106° |
| 2026-05-05 05:44 | 52.07811 | 7.16313 | 34924 ft | 465 kts | 106° |
| 2026-05-05 05:45 | 52.06388 | 7.26498 | 34921 ft | 465 kts | 106° |
| 2026-05-05 05:45 | 52.04952 | 7.36734 | 34917 ft | 465 kts | 106° |
| 2026-05-05 05:46 | 52.03495 | 7.47045 | 34920 ft | 466 kts | 106° |
| 2026-05-05 05:46 | 52.02032 | 7.57313 | 34910 ft | 466 kts | 107° |
| 2026-05-05 05:47 | 52.00562 | 7.67561 | 34914 ft | 466 kts | 107° |
| 2026-05-05 05:47 | 51.99071 | 7.77884 | 34901 ft | 466 kts | 107° |
| 2026-05-05 05:48 | 51.97574 | 7.88180 | 34911 ft | 467 kts | 107° |
| 2026-05-05 05:48 | 51.96071 | 7.98446 | 34913 ft | 468 kts | 107° |
| 2026-05-05 05:49 | 51.94560 | 8.08701 | 34903 ft | 468 kts | 107° |
| 2026-05-05 05:49 | 51.93036 | 8.18979 | 34902 ft | 469 kts | 107° |
| 2026-05-05 05:50 | 51.91497 | 8.29289 | 34902 ft | 469 kts | 107° |
| 2026-05-05 05:50 | 51.89953 | 8.39570 | 34903 ft | 470 kts | 108° |
| 2026-05-05 05:51 | 51.88388 | 8.49918 | 34902 ft | 470 kts | 108° |
| 2026-05-05 05:51 | 51.86821 | 8.60210 | 34905 ft | 471 kts | 108° |
| 2026-05-05 05:52 | 51.85248 | 8.70484 | 34906 ft | 471 kts | 108° |
| 2026-05-05 05:52 | 51.83668 | 8.80731 | 34903 ft | 471 kts | 108° |
| 2026-05-05 05:53 | 51.82076 | 8.90992 | 34906 ft | 470 kts | 108° |
| 2026-05-05 05:53 | 51.81804 | 8.92745 | 34908 ft | 470 kts | 108° |